Time;durP1;ratioP1;P1;durP2;ratioP2;P2;SDS_P1;SDS_P2;PMS_P1;PMS_P2;Temp;Humidity;BMP_temperature;BMP_pressure;BME280_temperature;BME280_humidity;BME280_pressure;Samples;Min_cycle;Max_cycle;Signal;HPM_P1;HPM_P2
2021/08/12 00:00:44;;;;;;;7.53;4.53;;;;;;;20.54;83.65;96655.06;4974844;28;20204;-67
2021/08/12 00:03:10;;;;;;;10.05;4.80;;;;;;;20.75;82.69;96662.63;4975220;28;20227;-67
2021/08/12 00:05:37;;;;;;;8.77;5.30;;;;;;;20.83;81.97;96661.47;4974258;28;20877;-67
2021/08/12 00:08:04;;;;;;;12.30;6.07;;;;;;;20.74;83.35;96657.50;4974925;28;20203;-67
2021/08/12 00:10:31;;;;;;;8.23;5.32;;;;;;;20.81;81.78;96660.88;4974707;28;20740;-67
2021/08/12 00:12:58;;;;;;;10.45;5.65;;;;;;;20.90;80.81;96661.13;4974873;28;20588;-67
2021/08/12 00:15:25;;;;;;;10.85;4.95;;;;;;;20.70;82.54;96659.78;4974031;28;20203;-68
2021/08/12 00:17:52;;;;;;;8.60;5.60;;;;;;;20.79;82.20;96655.75;4977703;28;20822;-67
2021/08/12 00:20:19;;;;;;;10.05;5.90;;;;;;;20.79;83.70;96654.97;4978727;28;20203;-67
2021/08/12 00:22:45;;;;;;;11.80;6.07;;;;;;;20.61;84.56;96652.28;4978107;28;20234;-67
2021/08/12 00:25:12;;;;;;;13.35;5.85;;;;;;;20.68;83.64;96650.34;4977764;28;20210;-67
2021/08/12 00:27:38;;;;;;;14.07;6.63;;;;;;;20.41;83.70;96654.44;4977582;28;20215;-67
2021/08/12 00:30:07;;;;;;;12.95;5.43;;;;;;;20.81;82.21;96648.28;4978730;28;20217;-67
2021/08/12 00:32:34;;;;;;;9.55;4.85;;;;;;;20.18;84.01;96655.16;4977746;28;20223;-67
2021/08/12 00:35:00;;;;;;;11.10;5.03;;;;;;;20.52;82.29;96656.34;4977896;28;20204;-67
2021/08/12 00:37:26;;;;;;;10.48;5.18;;;;;;;20.39;82.48;96653.84;4977334;28;20230;-68
2021/08/12 00:39:53;;;;;;;9.13;5.55;;;;;;;20.08;83.96;96663.97;4977107;28;20211;-68
2021/08/12 00:42:19;;;;;;;10.00;5.35;;;;;;;19.82;85.57;96654.38;4976054;28;20210;-68
2021/08/12 00:44:46;;;;;;;10.15;5.30;;;;;;;19.99;83.30;96660.78;4978242;28;20207;-67
2021/08/12 00:47:14;;;;;;;8.32;5.15;;;;;;;20.14;82.49;96669.25;4977017;28;20202;-67
2021/08/12 00:49:40;;;;;;;8.02;5.20;;;;;;;19.93;82.99;96669.69;4977759;28;20310;-67
2021/08/12 00:52:10;;;;;;;10.23;5.28;;;;;;;19.62;84.74;96666.34;4977822;28;20207;-67
2021/08/12 00:54:39;;;;;;;8.93;5.65;;;;;;;19.61;84.94;96673.53;4977494;28;20226;-68
2021/08/12 00:57:06;;;;;;;11.13;5.53;;;;;;;19.65;84.66;96673.91;4976679;28;20219;-67
2021/08/12 00:59:36;;;;;;;9.77;6.32;;;;;;;19.68;84.41;96663.59;4976330;28;20210;-67
2021/08/12 01:02:03;;;;;;;11.43;6.30;;;;;;;19.67;85.57;96672.63;4977724;28;20585;-67
2021/08/12 01:04:30;;;;;;;8.50;5.80;;;;;;;19.73;85.08;96671.75;4977709;28;20460;-67
2021/08/12 01:07:02;;;;;;;11.65;6.28;;;;;;;19.73;85.85;96669.09;4976986;28;20207;-68
2021/08/12 01:09:34;;;;;;;10.40;6.50;;;;;;;19.69;85.48;96670.56;4978251;28;20214;-68
2021/08/12 01:12:08;;;;;;;12.02;6.40;;;;;;;19.93;83.91;96672.38;4977089;28;20683;-67
2021/08/12 01:14:40;;;;;;;10.07;6.50;;;;;;;19.75;84.65;96675.00;4977371;28;21158;-67
2021/08/12 01:17:09;;;;;;;12.23;6.22;;;;;;;19.47;85.16;96671.22;4976743;28;20230;-67
2021/08/12 01:20:21;;;;;;;9.70;6.40;;;;;;;19.78;82.74;96669.25;4977201;28;20196;-67
2021/08/12 01:22:50;;;;;;;9.32;5.95;;;;;;;19.64;83.63;96667.75;4977273;28;20227;-67
2021/08/12 01:25:22;;;;;;;10.80;6.47;;;;;;;19.83;83.16;96671.22;4976627;28;20200;-67
2021/08/12 01:27:51;;;;;;;13.45;6.05;;;;;;;19.79;82.98;96665.53;4976340;28;20227;-67
2021/08/12 01:30:22;;;;;;;11.27;5.97;;;;;;;19.81;82.35;96663.44;4978247;28;20203;-67
2021/08/12 01:32:57;;;;;;;12.25;6.30;;;;;;;19.75;82.45;96666.19;4976997;28;20246;-67
2021/08/12 01:35:25;;;;;;;8.77;5.78;;;;;;;19.59;82.68;96669.47;4976790;28;20211;-67
2021/08/12 01:37:54;;;;;;;9.75;5.65;;;;;;;19.57;81.88;96673.41;4977085;28;20223;-67
2021/08/12 01:40:22;;;;;;;7.35;5.07;;;;;;;19.64;81.64;96673.09;4974186;28;20207;-67
2021/08/12 01:42:50;;;;;;;11.00;5.40;;;;;;;19.69;81.47;96667.91;4976289;28;20715;-67
2021/08/12 01:45:17;;;;;;;13.35;5.60;;;;;;;19.63;81.51;96671.44;4976351;28;21008;-67
2021/08/12 01:47:44;;;;;;;10.63;5.70;;;;;;;19.56;82.07;96671.75;4976861;28;20589;-67
2021/08/12 01:50:14;;;;;;;10.02;5.80;;;;;;;19.48;83.66;96672.03;4976769;28;20211;-67
2021/08/12 01:52:44;;;;;;;10.00;6.38;;;;;;;19.40;84.27;96670.47;4976566;28;20691;-67
2021/08/12 01:55:11;;;;;;;9.30;6.30;;;;;;;19.12;84.26;96677.31;4976412;28;20243;-67
2021/08/12 01:57:40;;;;;;;9.98;6.68;;;;;;;19.41;83.73;96681.97;4976310;28;20227;-67
2021/08/12 02:00:08;;;;;;;15.82;7.65;;;;;;;19.45;84.06;96677.81;4977296;28;20203;-67
2021/08/12 02:02:36;;;;;;;8.80;5.95;;;;;;;19.15;84.86;96675.00;4975452;28;20220;-67
2021/08/12 02:05:04;;;;;;;12.25;5.95;;;;;;;19.31;83.72;96670.97;4976620;28;20212;-67
2021/08/12 02:07:31;;;;;;;10.25;6.10;;;;;;;19.19;84.73;96670.88;4975634;28;20599;-67
2021/08/12 02:09:59;;;;;;;10.75;6.40;;;;;;;19.38;84.12;96664.53;4977176;28;20207;-67
2021/08/12 02:12:26;;;;;;;12.13;6.43;;;;;;;19.22;84.22;96669.59;4976264;28;20223;-67
2021/08/12 02:14:52;;;;;;;15.43;6.68;;;;;;;19.34;83.88;96668.66;4976625;28;20211;-68
2021/08/12 02:17:19;;;;;;;12.52;6.03;;;;;;;19.21;82.91;96670.66;4975901;28;20230;-67
2021/08/12 02:19:45;;;;;;;10.85;6.22;;;;;;;19.11;83.09;96665.00;4976465;28;20211;-67
2021/08/12 02:22:18;;;;;;;8.57;6.15;;;;;;;19.29;82.03;96667.72;4976507;28;20667;-67
2021/08/12 02:24:51;;;;;;;8.27;5.75;;;;;;;19.16;82.20;96662.50;4976654;28;20218;-67
2021/08/12 02:27:22;;;;;;;8.02;5.53;;;;;;;19.13;82.80;96668.25;4975804;28;20542;-67
2021/08/12 02:29:51;;;;;;;11.55;6.53;;;;;;;19.17;84.13;96669.44;4975738;28;20223;-67
2021/08/12 02:32:19;;;;;;;14.50;6.45;;;;;;;19.15;83.74;96661.66;4976608;28;20219;-67
2021/08/12 02:34:46;;;;;;;9.45;5.78;;;;;;;19.10;84.48;96652.66;4976362;28;20589;-67
2021/08/12 02:37:15;;;;;;;11.05;6.72;;;;;;;19.20;85.16;96653.00;4975492;28;20684;-67
2021/08/12 02:39:43;;;;;;;9.75;6.63;;;;;;;19.24;84.51;96656.84;4972030;28;20204;-67
2021/08/12 02:42:11;;;;;;;11.88;6.47;;;;;;;18.92;84.08;96655.25;4973226;28;20210;-67
2021/08/12 02:44:42;;;;;;;10.90;6.05;;;;;;;18.85;85.26;96649.16;4975550;28;20208;-67
2021/08/12 02:47:09;;;;;;;9.85;5.60;;;;;;;19.04;83.97;96640.16;4975203;28;20239;-67
2021/08/12 02:49:40;;;;;;;10.57;5.65;;;;;;;19.11;83.03;96651.66;4975880;28;20987;-67
2021/08/12 02:52:07;;;;;;;8.05;5.30;;;;;;;19.05;83.40;96655.16;4976449;28;20207;-67
2021/08/12 02:54:36;;;;;;;8.85;5.00;;;;;;;19.14;83.21;96649.34;4975851;28;20207;-67
2021/08/12 02:57:03;;;;;;;10.27;5.63;;;;;;;18.96;83.07;96643.09;4975884;28;20204;-67
2021/08/12 02:59:29;;;;;;;9.18;5.53;;;;;;;19.01;82.58;96648.63;4975807;28;20203;-67
2021/08/12 03:01:58;;;;;;;8.48;5.70;;;;;;;18.64;84.50;96649.53;4975550;28;20203;-67
2021/08/12 03:04:25;;;;;;;12.32;5.93;;;;;;;18.54;84.95;96649.19;4975517;28;20219;-67
2021/08/12 03:06:55;;;;;;;11.23;6.03;;;;;;;18.87;84.04;96654.28;4975419;28;20209;-67
2021/08/12 03:09:23;;;;;;;15.85;6.85;;;;;;;18.83;85.47;96653.91;4975318;28;20226;-67
2021/08/12 03:11:50;;;;;;;8.75;6.22;;;;;;;18.71;86.13;96652.97;4976209;28;20631;-68
2021/08/12 03:14:17;;;;;;;11.35;6.25;;;;;;;18.65;85.90;96648.50;4975189;28;20571;-67
2021/08/12 03:16:45;;;;;;;10.55;5.68;;;;;;;18.50;84.94;96645.31;4974407;28;20218;-67
2021/08/12 03:19:15;;;;;;;8.07;5.50;;;;;;;18.49;85.43;96645.53;4975919;28;20234;-67
2021/08/12 03:22:04;;;;;;;7.80;4.57;;;;;;;18.64;83.85;96643.38;4975756;28;20214;-67
2021/08/12 03:24:33;;;;;;;15.20;6.82;;;;;;;18.68;85.08;96645.38;4974770;28;20228;-67
2021/08/12 03:27:00;;;;;;;19.50;7.28;;;;;;;18.58;87.02;96641.56;4974963;28;20211;-67
2021/08/12 03:29:27;;;;;;;15.85;7.63;;;;;;;18.64;87.87;96646.03;4975204;28;20208;-67
2021/08/12 03:31:53;;;;;;;14.70;7.75;;;;;;;18.69;87.78;96652.38;4975293;28;20207;-67
2021/08/12 03:34:21;;;;;;;14.23;5.90;;;;;;;18.60;85.36;96659.00;4974788;28;20234;-67
2021/08/12 03:36:48;;;;;;;10.65;5.28;;;;;;;18.23;85.04;96652.88;4974727;28;20207;-67
2021/08/12 03:39:14;;;;;;;9.07;6.00;;;;;;;18.47;84.71;96650.28;4975715;28;20223;-67
2021/08/12 03:41:41;;;;;;;14.40;6.07;;;;;;;18.49;85.84;96658.88;4971970;28;20215;-67
2021/08/12 03:44:08;;;;;;;13.95;6.40;;;;;;;18.33;86.26;96654.06;4975551;28;20227;-67
2021/08/12 03:46:35;;;;;;;13.00;6.10;;;;;;;18.39;84.82;96653.19;4974379;28;20283;-67
2021/08/12 03:49:03;;;;;;;11.98;6.03;;;;;;;18.49;84.24;96658.88;4974886;28;20204;-67
2021/08/12 03:51:31;;;;;;;12.57;6.32;;;;;;;18.44;86.06;96651.53;4975326;28;20207;-67
2021/08/12 03:53:58;;;;;;;12.35;6.38;;;;;;;18.62;84.75;96654.28;4974638;28;20796;-67
2021/08/12 03:56:24;;;;;;;13.13;5.97;;;;;;;18.66;84.05;96655.47;4974110;28;20211;-67
2021/08/12 03:58:51;;;;;;;13.50;6.65;;;;;;;18.69;84.03;96654.22;4975559;28;20237;-67
2021/08/12 04:01:18;;;;;;;16.23;7.20;;;;;;;18.66;85.24;96655.47;4974842;28;20218;-67
2021/08/12 04:03:44;;;;;;;13.85;7.32;;;;;;;18.61;85.39;96649.13;4975176;28;20227;-68
2021/08/12 04:06:11;;;;;;;9.98;5.95;;;;;;;18.55;83.88;96653.50;4974365;28;20203;-67
2021/08/12 04:08:39;;;;;;;13.30;5.88;;;;;;;18.60;82.74;96648.31;4974960;28;20200;-67
2021/08/12 04:11:05;;;;;;;9.93;6.80;;;;;;;18.56;83.23;96649.78;4974875;28;20203;-67
2021/08/12 04:13:32;;;;;;;11.57;6.53;;;;;;;18.55;83.36;96647.34;4975235;28;20228;-67
2021/08/12 04:15:58;;;;;;;15.73;6.00;;;;;;;18.63;82.50;96647.06;4974271;28;20211;-67
2021/08/12 04:18:25;;;;;;;12.35;6.00;;;;;;;18.51;83.27;96651.47;4974870;28;20269;-67
2021/08/12 04:20:52;;;;;;;9.82;5.90;;;;;;;18.58;82.71;96646.91;4975097;28;20203;-67
2021/08/12 04:23:18;;;;;;;14.85;6.10;;;;;;;18.55;83.18;96650.81;4974294;28;20219;-67
2021/08/12 04:25:46;;;;;;;10.00;5.45;;;;;;;18.84;82.87;96647.53;4973772;28;20211;-68
2021/08/12 04:28:13;;;;;;;12.48;5.50;;;;;;;18.85;81.31;96638.50;4974978;28;20206;-67
2021/08/12 04:30:40;;;;;;;9.07;5.82;;;;;;;18.75;82.78;96638.16;4974547;28;20199;-68
2021/08/12 04:33:06;;;;;;;8.80;5.57;;;;;;;18.64;83.88;96638.03;4974399;28;20223;-67
2021/08/12 04:35:33;;;;;;;12.55;5.68;;;;;;;18.51;84.24;96638.94;4973944;28;20215;-68
2021/08/12 04:37:59;;;;;;;11.45;5.68;;;;;;;18.37;85.42;96640.06;4974806;28;21002;-68
2021/08/12 04:40:26;;;;;;;9.90;6.07;;;;;;;18.23;86.59;96658.19;4971060;28;20203;-68
2021/08/12 04:42:54;;;;;;;9.10;4.97;;;;;;;18.33;85.86;96653.22;4974500;28;20227;-68
2021/08/12 04:45:21;;;;;;;9.65;4.82;;;;;;;18.31;85.21;96642.78;4973548;28;20762;-68
2021/08/12 04:47:48;;;;;;;9.23;5.70;;;;;;;18.63;84.27;96645.22;4974317;28;20207;-68
2021/08/12 04:50:14;;;;;;;15.02;7.38;;;;;;;18.58;86.77;96644.22;4974799;28;20206;-68
2021/08/12 04:52:41;;;;;;;12.48;7.22;;;;;;;18.51;87.25;96652.28;4974099;28;20219;-67
2021/08/12 04:55:09;;;;;;;11.43;6.93;;;;;;;18.58;87.53;96649.56;4974733;28;20215;-68
2021/08/12 04:57:36;;;;;;;15.45;8.13;;;;;;;18.69;88.05;96657.69;4973827;28;20200;-68
2021/08/12 05:00:05;;;;;;;12.02;7.32;;;;;;;18.74;87.59;96657.06;4974672;28;20203;-68
2021/08/12 05:02:31;;;;;;;16.23;7.35;;;;;;;18.89;87.06;96653.03;4975315;28;20223;-68
2021/08/12 05:04:58;;;;;;;10.98;7.00;;;;;;;19.11;86.13;96654.31;4978264;28;20200;-68
2021/08/12 05:07:24;;;;;;;11.45;7.55;;;;;;;19.19;86.11;96664.72;4976394;28;20210;-68
2021/08/12 05:09:51;;;;;;;12.88;7.05;;;;;;;18.97;88.22;96663.44;4977628;28;20207;-68
2021/08/12 05:12:19;;;;;;;14.18;6.90;;;;;;;19.20;87.14;96661.81;4977270;28;20204;-68
2021/08/12 05:14:45;;;;;;;11.95;6.93;;;;;;;19.29;87.14;96667.72;4977061;28;20315;-68
2021/08/12 05:17:13;;;;;;;12.85;7.32;;;;;;;19.23;88.31;96663.22;4977258;28;20211;-68
2021/08/12 05:19:40;;;;;;;12.98;7.50;;;;;;;19.34;88.00;96668.66;4977080;28;20223;-68
2021/08/12 05:22:09;;;;;;;12.52;7.50;;;;;;;19.19;89.09;96665.53;4977750;28;20218;-68
2021/08/12 05:24:35;;;;;;;18.48;7.60;;;;;;;19.23;89.29;96674.75;4977043;28;20207;-67
2021/08/12 05:27:02;;;;;;;14.13;7.00;;;;;;;19.40;88.74;96683.00;4977369;28;20214;-68
2021/08/12 05:29:28;;;;;;;13.60;7.32;;;;;;;19.56;88.31;96674.44;4976452;28;20199;-68
2021/08/12 05:31:55;;;;;;;10.60;6.45;;;;;;;19.60;88.61;96677.25;4977487;28;20218;-68
2021/08/12 05:34:23;;;;;;;12.25;6.07;;;;;;;19.96;87.63;96681.81;4976661;28;20227;-68
2021/08/12 05:36:49;;;;;;;13.52;6.90;;;;;;;19.88;88.03;96680.22;4977015;28;20207;-68
2021/08/12 05:39:16;;;;;;;12.27;6.47;;;;;;;19.81;88.51;96684.03;4976598;28;20223;-68
2021/08/12 05:41:42;;;;;;;13.40;7.70;;;;;;;19.95;88.01;96686.34;4974956;28;20211;-68
2021/08/12 05:44:09;;;;;;;15.43;7.45;;;;;;;20.03;87.75;96680.69;4976535;28;20223;-68
2021/08/12 05:46:35;;;;;;;13.02;7.20;;;;;;;20.17;87.96;96679.47;4976057;28;20220;-68
2021/08/12 05:49:01;;;;;;;13.15;7.88;;;;;;;20.27;87.22;96683.25;4977032;28;20203;-68
2021/08/12 05:51:30;;;;;;;12.77;7.82;;;;;;;20.56;87.29;96679.78;4977370;28;20203;-68
2021/08/12 05:53:57;;;;;;;17.90;8.27;;;;;;;20.59;87.01;96673.13;4975852;28;20234;-68
2021/08/12 05:56:23;;;;;;;14.38;7.38;;;;;;;20.64;87.60;96671.41;4975969;28;20218;-68
2021/08/12 05:58:50;;;;;;;13.57;7.70;;;;;;;20.52;89.02;96675.06;4977560;28;20231;-68
2021/08/12 06:01:16;;;;;;;13.95;7.70;;;;;;;20.71;87.76;96676.66;4977041;28;20271;-68
2021/08/12 06:03:43;;;;;;;11.80;8.00;;;;;;;20.77;87.11;96667.75;4976863;28;20231;-68
2021/08/12 06:06:10;;;;;;;18.02;8.13;;;;;;;20.81;87.52;96658.22;4975589;28;20214;-68
2021/08/12 06:08:37;;;;;;;13.35;7.93;;;;;;;20.98;87.18;96668.03;4977006;28;20570;-68
2021/08/12 06:11:04;;;;;;;15.82;8.10;;;;;;;21.01;87.97;96673.72;4976342;28;20265;-68
2021/08/12 06:13:30;;;;;;;20.85;9.15;;;;;;;21.00;88.04;96671.28;4976655;28;20223;-68
2021/08/12 06:15:58;;;;;;;15.15;8.68;;;;;;;21.25;87.15;96672.72;4975434;28;20208;-68
2021/08/12 06:18:25;;;;;;;15.70;9.57;;;;;;;21.33;87.43;96676.91;4976395;28;20635;-68
2021/08/12 06:20:51;;;;;;;16.33;10.23;;;;;;;21.26;87.46;96687.75;4976715;28;20218;-68
2021/08/12 06:23:18;;;;;;;18.30;10.00;;;;;;;21.45;85.71;96689.28;4976737;28;20223;-68
2021/08/12 06:25:46;;;;;;;14.55;8.98;;;;;;;21.59;86.02;96691.53;4975373;28;20212;-68
2021/08/12 06:28:13;;;;;;;13.00;9.45;;;;;;;21.87;86.09;96698.84;4976693;28;20203;-69
2021/08/12 06:30:39;;;;;;;16.65;9.73;;;;;;;22.01;84.76;96687.63;4975932;28;20199;-68
2021/08/12 06:33:06;;;;;;;23.13;9.45;;;;;;;22.40;83.58;96684.97;4976460;28;20231;-68
2021/08/12 06:35:34;;;;;;;19.90;10.50;;;;;;;22.37;84.13;96682.75;4975070;28;20648;-68
2021/08/12 06:38:03;;;;;;;20.08;10.20;;;;;;;22.66;82.67;96679.03;4976204;28;20573;-68
2021/08/12 06:40:30;;;;;;;15.93;9.05;;;;;;;22.71;82.33;96681.81;4972395;28;20219;-68
2021/08/12 06:42:58;;;;;;;15.13;9.95;;;;;;;22.60;84.32;96689.91;4974949;28;20250;-68
2021/08/12 06:45:25;;;;;;;18.20;10.00;;;;;;;22.68;83.25;96690.31;4974880;28;20226;-68
2021/08/12 06:47:53;;;;;;;14.73;9.63;;;;;;;22.75;83.81;96693.69;4975267;28;20492;-68
2021/08/12 06:50:21;;;;;;;17.67;9.82;;;;;;;22.63;85.27;96692.91;4974611;28;20199;-68
2021/08/12 06:52:48;;;;;;;16.23;9.30;;;;;;;22.65;85.14;96685.44;4974844;28;20885;-68
2021/08/12 06:55:15;;;;;;;17.65;9.85;;;;;;;22.74;84.54;96689.38;4975131;28;20306;-68
2021/08/12 06:57:41;;;;;;;17.95;9.48;;;;;;;22.56;85.23;96692.25;4974722;28;20211;-68
2021/08/12 07:00:12;;;;;;;19.15;9.38;;;;;;;22.58;85.77;96694.69;4975331;28;20474;-68
2021/08/12 07:02:39;;;;;;;19.45;10.32;;;;;;;22.59;84.83;96699.03;4975334;28;20714;-68
2021/08/12 07:05:06;;;;;;;14.02;9.18;;;;;;;22.48;84.92;96695.34;4975496;28;20590;-68
2021/08/12 07:07:33;;;;;;;13.57;9.02;;;;;;;22.45;84.32;96692.31;4973843;28;20746;-68
2021/08/12 07:09:59;;;;;;;17.10;9.52;;;;;;;22.60;84.57;96695.28;4974868;28;20207;-68
2021/08/12 07:12:25;;;;;;;17.77;9.77;;;;;;;22.77;83.16;96691.56;4975849;28;20199;-68
2021/08/12 07:14:52;;;;;;;17.83;9.77;;;;;;;22.88;84.03;96696.06;4975101;28;20212;-68
2021/08/12 07:17:20;;;;;;;14.07;9.93;;;;;;;22.77;84.73;96705.84;4974017;28;20203;-68
2021/08/12 07:19:46;;;;;;;16.98;9.15;;;;;;;23.12;84.30;96703.00;4974909;28;20230;-68
2021/08/12 07:22:13;;;;;;;19.20;10.00;;;;;;;22.90;83.81;96702.03;4975440;28;20199;-68
2021/08/12 07:24:39;;;;;;;17.00;9.95;;;;;;;22.61;84.83;96705.78;4974364;28;20646;-68
2021/08/12 07:27:06;;;;;;;15.73;9.35;;;;;;;23.05;84.56;96694.25;4974158;28;20207;-68
2021/08/12 07:29:32;;;;;;;15.07;9.57;;;;;;;23.00;84.30;96699.53;4975269;28;20210;-68
2021/08/12 07:31:59;;;;;;;16.48;9.32;;;;;;;23.45;81.40;96704.59;4974276;28;20211;-69
2021/08/12 07:34:26;;;;;;;17.30;9.57;;;;;;;23.19;82.12;96698.25;4975059;28;20231;-69
2021/08/12 07:36:53;;;;;;;17.65;9.55;;;;;;;23.39;81.57;96694.03;4974288;28;20671;-68
2021/08/12 07:39:19;;;;;;;15.10;9.20;;;;;;;23.74;81.84;96700.78;4973956;28;20234;-68
2021/08/12 07:41:46;;;;;;;16.38;9.52;;;;;;;23.78;80.82;96693.00;4971963;28;20699;-68
2021/08/12 07:44:13;;;;;;;17.92;9.52;;;;;;;23.86;80.74;96701.50;4974978;28;20237;-68
2021/08/12 07:46:40;;;;;;;18.45;9.65;;;;;;;24.10;79.70;96692.94;4974301;28;20211;-68
2021/08/12 07:49:07;;;;;;;18.38;9.40;;;;;;;24.16;79.86;96691.13;4974556;28;20204;-68
2021/08/12 07:51:35;;;;;;;19.95;9.30;;;;;;;24.05;79.82;96695.56;4974289;28;20207;-68
2021/08/12 07:54:01;;;;;;;15.13;9.40;;;;;;;24.16;79.72;96691.94;4974063;28;20277;-68
2021/08/12 07:56:27;;;;;;;12.45;8.63;;;;;;;24.54;80.00;96681.09;4974049;28;20207;-68
2021/08/12 07:58:54;;;;;;;16.20;9.32;;;;;;;24.92;78.09;96676.38;4974237;28;20282;-68
2021/08/12 08:01:21;;;;;;;18.20;8.73;;;;;;;24.86;80.67;96661.25;4974566;28;20210;-68
2021/08/12 08:03:47;;;;;;;14.13;7.75;;;;;;;25.09;76.26;96666.34;4974141;28;20227;-68
2021/08/12 08:06:14;;;;;;;12.63;7.50;;;;;;;25.29;75.97;96667.31;4973189;28;20206;-69
2021/08/12 08:08:42;;;;;;;11.10;6.78;;;;;;;25.62;75.09;96666.19;4974560;28;20210;-69
2021/08/12 08:11:09;;;;;;;14.98;7.50;;;;;;;25.44;76.19;96664.72;4974414;28;20211;-69
2021/08/12 08:13:35;;;;;;;12.45;7.40;;;;;;;25.41;75.38;96667.16;4974224;28;20230;-69
2021/08/12 08:16:02;;;;;;;11.48;7.45;;;;;;;25.86;71.92;96658.31;4973843;28;20207;-69
2021/08/12 08:18:28;;;;;;;14.82;6.72;;;;;;;25.83;72.06;96669.59;4974379;28;20536;-69
2021/08/12 08:20:55;;;;;;;12.90;7.18;;;;;;;26.05;71.27;96670.25;4973978;28;20235;-69
2021/08/12 08:23:21;;;;;;;16.80;7.30;;;;;;;26.33;72.25;96661.75;4973496;28;20707;-69
2021/08/12 08:25:49;;;;;;;11.25;6.53;;;;;;;26.58;70.22;96659.16;4974556;28;20207;-69
2021/08/12 08:28:16;;;;;;;11.77;6.85;;;;;;;26.17;70.84;96660.06;4973919;28;20203;-69
2021/08/12 08:30:42;;;;;;;10.80;6.20;;;;;;;26.19;70.84;96662.50;4973494;28;20727;-69
2021/08/12 08:33:11;;;;;;;11.40;6.80;;;;;;;26.53;69.88;96665.38;4974517;28;20227;-69
2021/08/12 08:35:37;;;;;;;13.80;6.50;;;;;;;26.94;69.70;96672.50;4973324;28;20262;-69
2021/08/12 08:38:04;;;;;;;13.00;6.50;;;;;;;26.92;66.50;96668.44;4975970;28;20672;-69
2021/08/12 08:40:32;;;;;;;12.90;7.00;;;;;;;27.26;66.84;96668.47;4975094;28;20219;-69
2021/08/12 08:42:59;;;;;;;11.90;6.85;;;;;;;27.18;66.62;96660.91;4977312;28;20238;-69
2021/08/12 08:45:28;;;;;;;15.52;7.43;;;;;;;26.88;66.01;96661.94;4976566;28;20210;-69
2021/08/12 08:47:57;;;;;;;13.55;7.82;;;;;;;26.74;67.08;96672.44;4976623;28;20227;-69
2021/08/12 08:50:26;;;;;;;10.75;7.75;;;;;;;26.75;69.42;96665.16;4977128;28;20554;-69
2021/08/12 08:52:53;;;;;;;13.52;7.72;;;;;;;26.97;67.18;96657.66;4977769;28;20696;-69
2021/08/12 08:55:23;;;;;;;14.10;7.28;;;;;;;26.85;68.89;96659.78;4976275;28;20234;-69
2021/08/12 08:57:49;;;;;;;11.43;6.72;;;;;;;27.10;67.87;96656.03;4977543;28;20204;-69
2021/08/12 09:00:18;;;;;;;10.80;6.72;;;;;;;27.57;65.43;96661.19;4976799;28;20230;-69
2021/08/12 09:02:45;;;;;;;13.13;6.80;;;;;;;27.47;65.14;96658.47;4977165;28;20227;-69
2021/08/12 09:05:11;;;;;;;12.60;6.78;;;;;;;27.46;63.42;96654.94;4976202;28;20667;-69
2021/08/12 09:07:38;;;;;;;11.10;6.25;;;;;;;27.64;62.96;96656.31;4977285;28;20214;-69
2021/08/12 09:10:05;;;;;;;13.73;6.53;;;;;;;27.87;62.51;96661.97;4976908;28;20226;-69
2021/08/12 09:12:32;;;;;;;11.52;6.13;;;;;;;27.74;61.86;96654.41;4977085;28;20230;-69
2021/08/12 09:15:02;;;;;;;13.35;6.90;;;;;;;27.83;63.16;96655.47;4976433;28;20204;-69
2021/08/12 09:17:31;;;;;;;12.00;6.93;;;;;;;27.80;63.65;96650.59;4975899;28;20421;-69
2021/08/12 09:20:04;;;;;;;15.07;6.38;;;;;;;27.92;60.63;96654.63;4976240;28;20231;-69
2021/08/12 09:22:46;;;;;;;11.40;6.35;;;;;;;28.33;61.64;96656.16;4977073;28;20734;-69
2021/08/12 09:25:13;;;;;;;12.55;6.38;;;;;;;27.79;62.73;96657.91;4976575;28;20235;-69
2021/08/12 09:27:39;;;;;;;8.98;6.20;;;;;;;27.75;62.85;96654.13;4976512;28;20231;-69
2021/08/12 09:30:09;;;;;;;11.88;6.30;;;;;;;28.53;61.17;96648.72;4975788;28;20745;-69
2021/08/12 09:32:46;;;;;;;11.35;6.35;;;;;;;28.71;62.43;96652.72;4976460;28;20276;-69
2021/08/12 09:35:13;;;;;;;12.05;6.60;;;;;;;28.57;61.71;96649.00;4976422;28;20207;-69
2021/08/12 09:37:39;;;;;;;12.45;6.55;;;;;;;28.51;61.00;96653.63;4976381;28;20689;-69
2021/08/12 09:40:07;;;;;;;13.52;6.43;;;;;;;28.65;60.63;96648.41;4974236;28;20250;-69
2021/08/12 09:42:58;;;;;;;12.98;6.43;;;;;;;28.87;59.67;96646.94;4977155;28;20223;-69
2021/08/12 09:45:25;;;;;;;10.27;6.25;;;;;;;28.80;62.13;96651.06;4975427;28;20294;-69
2021/08/12 09:47:54;;;;;;;10.30;6.07;;;;;;;29.09;59.29;96644.63;4975644;28;20238;-69
2021/08/12 09:50:24;;;;;;;14.25;6.30;;;;;;;29.34;59.75;96637.13;4976361;28;20203;-69
2021/08/12 09:52:51;;;;;;;10.57;6.35;;;;;;;29.24;57.43;96636.34;4976266;28;20238;-69
2021/08/12 09:55:19;;;;;;;13.18;5.97;;;;;;;29.55;58.85;96637.75;4975301;28;20589;-69
2021/08/12 09:57:47;;;;;;;12.65;6.30;;;;;;;29.45;56.93;96635.91;4976686;28;20219;-69
2021/08/12 10:00:29;;;;;;;10.85;6.13;;;;;;;29.49;57.97;96638.88;4976379;28;20227;-69
2021/08/12 10:02:58;;;;;;;9.68;6.20;;;;;;;29.30;56.65;96633.34;4975622;28;20231;-69
2021/08/12 10:05:25;;;;;;;10.75;5.80;;;;;;;29.62;57.43;96631.69;4975466;28;20222;-69
2021/08/12 10:07:53;;;;;;;12.25;5.80;;;;;;;29.95;55.24;96638.16;4975818;28;20203;-69
2021/08/12 10:10:21;;;;;;;11.10;6.30;;;;;;;30.32;53.69;96639.91;4975979;28;20196;-69
2021/08/12 10:12:51;;;;;;;8.63;5.40;;;;;;;30.64;52.52;96636.50;4975807;28;20230;-69
2021/08/12 10:15:21;;;;;;;11.65;5.47;;;;;;;30.57;52.65;96636.09;4975365;28;20453;-69
2021/08/12 10:17:49;;;;;;;10.30;5.80;;;;;;;30.34;55.47;96631.44;4975685;28;20207;-69
2021/08/12 10:20:20;;;;;;;12.52;5.80;;;;;;;30.59;52.22;96628.41;4976012;28;20226;-69
2021/08/12 10:22:48;;;;;;;8.55;5.70;;;;;;;30.83;52.13;96626.44;4975640;28;20405;-69
2021/08/12 10:25:17;;;;;;;11.18;5.82;;;;;;;30.75;50.40;96621.69;4975366;28;20204;-69
2021/08/12 10:27:46;;;;;;;8.70;6.30;;;;;;;30.74;50.02;96625.50;4975389;28;20210;-69
2021/08/12 10:30:14;;;;;;;9.48;6.28;;;;;;;31.08;50.36;96626.91;4975945;28;20212;-69
2021/08/12 10:32:47;;;;;;;9.15;5.90;;;;;;;31.18;52.18;96624.03;4975594;28;20223;-69
2021/08/12 10:35:14;;;;;;;8.60;6.10;;;;;;;30.40;49.51;96628.38;4975278;28;20203;-69
2021/08/12 10:37:42;;;;;;;11.68;6.07;;;;;;;30.30;50.89;96630.41;4975834;28;20211;-69
2021/08/12 10:40:10;;;;;;;10.48;6.15;;;;;;;30.73;52.30;96634.75;4973774;28;20724;-69
2021/08/12 10:42:39;;;;;;;11.07;5.93;;;;;;;31.07;50.66;96620.66;4975158;28;20535;-69
2021/08/12 10:45:06;;;;;;;12.75;5.85;;;;;;;31.15;50.04;96621.88;4976184;28;20218;-69
2021/08/12 10:47:40;;;;;;;10.48;6.00;;;;;;;31.35;45.74;96616.91;4974341;28;20423;-69
2021/08/12 10:50:34;;;;;;;9.45;6.00;;;;;;;31.53;48.28;96618.81;4975621;28;20227;-69
2021/08/12 10:53:19;;;;;;;9.68;6.07;;;;;;;31.90;47.56;96615.97;4975706;28;20276;-69
2021/08/12 10:56:16;;;;;;;9.20;5.68;;;;;;;31.93;46.82;96616.19;4975020;28;20215;-69
2021/08/12 10:58:44;;;;;;;12.48;5.97;;;;;;;31.25;45.99;96616.28;4975107;28;20212;-69
2021/08/12 11:01:13;;;;;;;14.45;6.35;;;;;;;31.55;45.40;96616.63;4975128;28;20238;-69
2021/08/12 11:03:45;;;;;;;9.32;6.30;;;;;;;31.54;50.97;96609.53;4974708;28;20288;-69
2021/08/12 11:06:14;;;;;;;10.70;6.45;;;;;;;31.66;49.16;96615.34;4974746;28;20729;-69
2021/08/12 11:09:04;;;;;;;10.80;6.40;;;;;;;31.41;50.62;96606.78;4975019;28;20222;-69
2021/08/12 11:11:59;;;;;;;11.00;6.45;;;;;;;31.63;51.39;96610.47;4974981;28;20984;-69
2021/08/12 11:14:51;;;;;;;26.08;6.95;;;;;;;31.69;51.29;96614.72;4974655;28;20758;-69
2021/08/12 11:17:19;;;;;;;10.73;6.38;;;;;;;31.84;49.64;96609.81;4974547;28;20280;-69
2021/08/12 11:19:45;;;;;;;11.25;6.60;;;;;;;32.13;49.12;96608.44;4974486;28;20207;-69
2021/08/12 11:22:35;;;;;;;10.75;7.05;;;;;;;32.17;43.48;96614.09;4974670;28;20632;-69
2021/08/12 11:25:06;;;;;;;10.68;6.68;;;;;;;31.77;44.59;96611.31;4974970;28;20294;-69
2021/08/12 11:27:45;;;;;;;10.93;6.85;;;;;;;31.57;46.85;96603.53;4973980;28;20738;-69
2021/08/12 11:30:44;;;;;;;16.05;6.47;;;;;;;31.73;46.40;96608.38;4974669;28;20284;-69
2021/08/12 11:33:31;;;;;;;13.75;6.75;;;;;;;32.34;47.81;96608.84;4914607;28;20264;-69